Big Rapids, MI

3:35 PM EST on December 06, 2016 (GMT -0500)
429 Finley | | Change Station

Elev 935 ft 43.70 °N, 85.49 °W | Updated 10 seconds ago

Overcast
Overcast
38.2 °F
Feels Like 38 °F
N
1.0
Wind Variable Wind from NE

Today
High -- | Low -- °F
--% Chance of Precip.
Yesterday
High -- | Low -- °F
Precip. -- in
Pressure 29.67 in
Visibility 10.0 miles
Clouds Overcast 1500 ft
Windchill 38 °F
Dew Point 34 °F
Humidity 86%
Rainfall 0.00 in
Snow Depth Not available.
8:01 AM 5:04 PM
Waxing Crescent, 45% visible
METAR KRQB 062014Z AUTO 14008KT 10SM OVC015 04/00 A2967 RMK AO2 T00380000
Pressure 29.67 in
Visibility 10.0 miles
Clouds Overcast 1500 ft
Windchill 38 °F
Dew Point 34 °F
Humidity 86%
Rainfall 0.00 in
Snow Depth Not available.
8:01 AM 5:04 PM
Waxing Crescent, 45% visible
METAR KRQB 062014Z AUTO 14008KT 10SM OVC015 04/00 A2967 RMK AO2 T00380000

10-Day Weather Forecast

Almanac

Astronomy

Dec. 06, 2016 Rise Set
Actual Time
Civil Twilight
Nautical Twilight
Astronomical Twilight
Moon
Length of Visible Light
Length of Day
Tomorrow will be .
, % of the Moon is Illuminated

Today's Extremes

State Highs State Lows

Community

WunderPhotos

Upload Photos

1,956,024 photos uploaded!

WunderBlog® & News

Nearby

Air Quality

  Air Quality AQ Index Pollutant
Not available.

Snow Depth

Station Depth Elevation

Earthquake Activity

City Distance Mag. Time & Date
Minimum magnitude displayed is 2.5.

Coastal Water Temperatures

Place Temperature

Stations

Nearby Weather Stations

Station Location Temp. Windchill Dew Point Humidity Wind Precip. Elev Updated Type
                   

Watches & Warnings

There are currently no watches in effect.